Time;durP1;ratioP1;P1;durP2;ratioP2;P2;SDS_P1;SDS_P2;PMS_P1;PMS_P2;Temp;Humidity;BMP_temperature;BMP_pressure;BME280_temperature;BME280_humidity;BME280_pressure;Samples;Min_cycle;Max_cycle;Signal;HPM_P1;HPM_P2
2023/10/25 00:01:26;;;;;;;9.63;6.63;;;12.90;99.90;;;;;;4998716;28;20223;-73
2023/10/25 00:03:51;;;;;;;7.20;6.50;;;12.90;99.90;;;;;;5001464;28;20208;-74
2023/10/25 00:06:17;;;;;;;7.03;6.33;;;12.90;99.90;;;;;;4999632;28;20469;-74
2023/10/25 00:08:43;;;;;;;6.43;5.83;;;12.90;99.90;;;;;;4999200;28;20263;-73
2023/10/25 00:11:09;;;;;;;10.80;6.00;;;12.90;99.90;;;;;;4995243;28;20185;-73
2023/10/25 00:13:35;;;;;;;6.50;5.87;;;12.90;99.90;;;;;;5001705;28;20174;-73
2023/10/25 00:16:02;;;;;;;7.17;6.43;;;12.90;99.90;;;;;;4994595;28;20758;-73
2023/10/25 00:18:28;;;;;;;7.20;6.50;;;13.00;99.90;;;;;;4997056;28;20447;-73
2023/10/25 00:20:54;;;;;;;6.80;6.20;;;13.00;99.90;;;;;;4989512;28;20456;-73
2023/10/25 00:23:21;;;;;;;9.87;6.57;;;13.00;99.90;;;;;;4998933;28;21022;-73
2023/10/25 00:25:50;;;;;;;7.50;6.20;;;13.00;99.90;;;;;;4996245;28;20474;-73
2023/10/25 00:28:16;;;;;;;8.30;6.87;;;13.00;99.90;;;;;;4995424;28;20423;-72
2023/10/25 00:30:44;;;;;;;12.30;5.87;;;13.00;99.90;;;;;;4987782;28;20464;-73
2023/10/25 00:33:10;;;;;;;7.17;6.47;;;13.00;99.90;;;;;;4993356;28;20525;-73
2023/10/25 00:35:35;;;;;;;9.70;5.70;;;13.00;99.90;;;;;;4998330;28;20424;-73
2023/10/25 00:38:01;;;;;;;7.80;6.53;;;13.00;99.90;;;;;;4993329;28;20443;-74
2023/10/25 00:40:27;;;;;;;7.00;5.80;;;13.00;99.90;;;;;;4996879;28;20206;-74
2023/10/25 00:42:57;;;;;;;8.13;6.27;;;13.00;99.90;;;;;;4989887;28;20268;-73
2023/10/25 00:45:22;;;;;;;7.60;6.80;;;13.00;99.90;;;;;;4993437;28;20213;-74
2023/10/25 00:47:48;;;;;;;11.90;5.90;;;13.10;99.90;;;;;;5003638;28;21053;-74
2023/10/25 00:50:17;;;;;;;7.80;7.03;;;13.10;99.90;;;;;;4993254;28;20755;-74
2023/10/25 00:52:44;;;;;;;6.83;6.10;;;13.10;99.90;;;;;;4995879;28;20235;-74
2023/10/25 00:55:10;;;;;;;11.10;6.80;;;13.10;99.90;;;;;;5023737;28;20440;-73
2023/10/25 00:57:36;;;;;;;6.50;5.90;;;13.10;99.90;;;;;;4996336;28;20437;-74
2023/10/25 01:00:02;;;;;;;9.43;6.70;;;13.10;99.90;;;;;;4996510;28;20467;-73
2023/10/25 01:02:28;;;;;;;7.07;5.60;;;13.10;99.90;;;;;;4998269;28;20634;-73
2023/10/25 01:04:54;;;;;;;9.00;6.53;;;13.10;99.90;;;;;;4993138;28;20552;-73
2023/10/25 01:07:19;;;;;;;6.47;5.50;;;13.10;99.90;;;;;;4994509;28;20181;-73
2023/10/25 01:09:45;;;;;;;6.17;5.57;;;13.10;99.90;;;;;;4996156;28;20215;-73
2023/10/25 01:12:11;;;;;;;5.97;5.37;;;13.10;99.90;;;;;;4996528;28;20189;-73
2023/10/25 01:14:37;;;;;;;6.67;5.90;;;13.10;99.90;;;;;;4999450;28;20443;-73
2023/10/25 01:17:03;;;;;;;8.83;6.00;;;13.00;99.90;;;;;;4998379;28;20197;-73
2023/10/25 01:19:28;;;;;;;8.63;5.50;;;13.00;99.90;;;;;;4995976;28;20204;-72
2023/10/25 01:21:54;;;;;;;6.53;6.03;;;13.00;99.90;;;;;;4998249;28;20791;-72
2023/10/25 01:24:21;;;;;;;8.20;6.17;;;13.00;99.90;;;;;;4992643;28;20259;-72
2023/10/25 01:26:46;;;;;;;6.40;5.80;;;13.00;99.90;;;;;;4995513;28;20272;-72
2023/10/25 01:29:12;;;;;;;7.27;6.57;;;13.00;99.90;;;;;;4993669;28;21101;-72
2023/10/25 01:31:38;;;;;;;6.83;6.13;;;13.00;99.90;;;;;;5002628;28;20665;-72
2023/10/25 01:34:03;;;;;;;6.70;6.10;;;12.90;99.90;;;;;;4996210;28;20189;-73
2023/10/25 01:36:29;;;;;;;14.70;7.27;;;12.90;99.90;;;;;;5002718;28;20246;-73
2023/10/25 01:38:55;;;;;;;8.03;7.30;;;12.90;99.90;;;;;;4993498;28;20236;-72
2023/10/25 01:41:20;;;;;;;9.33;7.23;;;12.90;99.90;;;;;;5001411;28;20248;-72
2023/10/25 01:43:46;;;;;;;11.93;7.80;;;12.90;99.90;;;;;;4991706;28;20181;-72
2023/10/25 01:46:14;;;;;;;9.67;8.27;;;12.80;99.90;;;;;;4998872;28;20251;-72
2023/10/25 01:48:40;;;;;;;15.90;9.50;;;12.80;99.90;;;;;;4977463;28;20200;-73
2023/10/25 01:51:06;;;;;;;10.43;8.53;;;12.80;99.90;;;;;;4984961;28;20437;-72
2023/10/25 01:53:33;;;;;;;8.40;7.50;;;12.80;99.90;;;;;;4996227;28;20202;-72
2023/10/25 01:55:58;;;;;;;9.50;8.50;;;12.80;99.90;;;;;;4993107;28;20424;-72
2023/10/25 01:58:24;;;;;;;9.27;7.77;;;12.80;99.90;;;;;;4993927;28;20447;-72
2023/10/25 02:00:50;;;;;;;8.73;7.83;;;12.80;99.90;;;;;;4987794;28;20220;-72
2023/10/25 02:03:15;;;;;;;9.17;8.17;;;12.80;99.90;;;;;;4994913;28;20257;-72
2023/10/25 02:05:41;;;;;;;7.63;6.93;;;12.80;99.90;;;;;;4994464;28;20212;-72
2023/10/25 02:08:07;;;;;;;8.30;7.40;;;12.80;99.90;;;;;;4991468;28;20617;-71
2023/10/25 02:10:33;;;;;;;8.90;7.03;;;12.80;99.90;;;;;;4991981;28;20231;-73
2023/10/25 02:12:59;;;;;;;12.03;7.83;;;12.80;99.90;;;;;;4992142;28;20190;-73
2023/10/25 02:15:25;;;;;;;7.80;7.00;;;12.80;99.90;;;;;;4993981;28;20428;-74
2023/10/25 02:17:51;;;;;;;7.53;6.80;;;12.80;99.90;;;;;;4989868;28;20664;-74
2023/10/25 02:20:16;;;;;;;7.13;6.43;;;12.70;99.90;;;;;;4993253;28;20452;-73
2023/10/25 02:22:42;;;;;;;9.13;7.00;;;12.70;99.90;;;;;;4991243;28;20221;-73
2023/10/25 02:25:07;;;;;;;6.83;6.13;;;12.70;99.90;;;;;;4995473;28;20185;-73
2023/10/25 02:27:33;;;;;;;8.50;7.33;;;12.70;99.90;;;;;;4998614;28;20664;-74
2023/10/25 02:29:59;;;;;;;7.13;6.10;;;12.70;99.90;;;;;;4995791;28;20696;-73
2023/10/25 02:32:24;;;;;;;8.23;7.40;;;12.60;99.90;;;;;;4995997;28;20192;-73
2023/10/25 02:34:50;;;;;;;8.73;7.00;;;12.60;99.90;;;;;;4994906;28;20641;-73
2023/10/25 02:37:16;;;;;;;7.70;6.90;;;12.70;99.90;;;;;;4997061;28;20764;-72
2023/10/25 02:39:42;;;;;;;7.40;6.20;;;12.70;99.90;;;;;;4994463;28;20734;-73
2023/10/25 02:42:08;;;;;;;9.17;6.60;;;12.60;99.90;;;;;;4997779;28;20546;-73
2023/10/25 02:44:34;;;;;;;7.30;6.50;;;12.60;99.90;;;;;;4991540;28;20424;-71
2023/10/25 02:47:00;;;;;;;9.10;6.33;;;12.60;99.90;;;;;;4992393;28;21053;-72
2023/10/25 02:49:25;;;;;;;9.07;6.60;;;12.60;99.90;;;;;;5020501;28;20779;-71
2023/10/25 02:51:51;;;;;;;7.87;7.07;;;12.60;99.90;;;;;;4993471;28;20276;-72
2023/10/25 02:54:17;;;;;;;7.27;6.53;;;12.60;99.90;;;;;;4991871;28;20182;-73
2023/10/25 02:56:43;;;;;;;10.50;7.43;;;12.60;99.90;;;;;;4995335;28;20185;-72
2023/10/25 02:59:09;;;;;;;8.43;6.30;;;12.60;99.90;;;;;;4993872;28;20453;-72
2023/10/25 03:01:34;;;;;;;6.63;5.93;;;12.60;99.90;;;;;;4997950;28;20225;-72
2023/10/25 03:04:01;;;;;;;7.10;6.13;;;12.60;99.90;;;;;;5002370;28;20193;-72
2023/10/25 03:06:26;;;;;;;10.43;6.97;;;12.60;99.90;;;;;;4998795;28;20442;-72
2023/10/25 03:08:52;;;;;;;9.20;5.67;;;12.60;99.90;;;;;;4991230;28;20981;-72
2023/10/25 03:11:17;;;;;;;7.17;5.67;;;12.60;99.90;;;;;;4993877;28;20961;-72
2023/10/25 03:13:43;;;;;;;6.47;5.80;;;12.60;99.90;;;;;;4993630;28;20260;-72
2023/10/25 03:16:09;;;;;;;5.80;5.20;;;12.60;99.90;;;;;;4987050;28;20209;-72
2023/10/25 03:18:36;;;;;;;6.00;4.97;;;12.60;99.90;;;;;;4990972;28;20741;-72
2023/10/25 03:21:03;;;;;;;7.83;5.53;;;12.60;99.90;;;;;;4991021;28;20531;-72
2023/10/25 03:23:30;;;;;;;5.67;4.70;;;12.60;99.90;;;;;;4990613;28;20189;-73
2023/10/25 03:26:01;;;;;;;6.77;4.30;;;12.60;99.90;;;;;;4988066;28;20472;-72
2023/10/25 03:28:27;;;;;;;4.03;3.63;;;12.60;99.90;;;;;;4989657;28;20471;-72
2023/10/25 03:30:52;;;;;;;4.40;3.90;;;12.60;99.90;;;;;;4990973;28;20950;-71
2023/10/25 03:33:18;;;;;;;3.83;3.33;;;12.60;99.90;;;;;;4998409;28;20197;-72
2023/10/25 03:35:53;;;;;;;5.80;3.40;;;12.60;99.90;;;;;;4996837;28;20189;-72
2023/10/25 03:38:19;;;;;;;4.60;3.27;;;12.60;99.90;;;;;;5000133;28;20595;-72
2023/10/25 03:40:46;;;;;;;5.00;3.57;;;12.60;99.90;;;;;;4998262;28;20451;-73
2023/10/25 03:43:11;;;;;;;5.30;3.30;;;12.60;99.90;;;;;;4997554;28;20468;-74
2023/10/25 03:45:37;;;;;;;8.93;3.43;;;12.60;99.90;;;;;;4991310;28;20487;-75
2023/10/25 03:48:03;;;;;;;3.87;3.50;;;12.60;99.90;;;;;;4997932;28;20174;-74
2023/10/25 03:50:28;;;;;;;5.50;3.20;;;12.60;99.90;;;;;;4996441;28;20612;-73
2023/10/25 03:52:55;;;;;;;3.00;2.70;;;12.60;99.90;;;;;;4994319;28;20315;-73
2023/10/25 03:55:21;;;;;;;3.47;3.10;;;12.60;99.90;;;;;;4994107;28;20228;-73
2023/10/25 03:57:47;;;;;;;7.90;3.10;;;12.50;99.90;;;;;;5000656;28;20452;-73
2023/10/25 04:00:13;;;;;;;4.20;3.30;;;12.50;99.90;;;;;;4999841;28;20228;-70
2023/10/25 04:02:40;;;;;;;4.40;2.80;;;12.50;99.90;;;;;;4995135;28;20448;-73
2023/10/25 04:05:05;;;;;;;4.97;3.07;;;12.50;99.90;;;;;;4998398;28;20800;-73
2023/10/25 04:07:32;;;;;;;3.93;3.00;;;12.50;99.90;;;;;;4999242;28;20412;-72
2023/10/25 04:09:57;;;;;;;4.80;2.77;;;12.40;99.90;;;;;;4994549;28;20916;-73
2023/10/25 04:12:23;;;;;;;3.53;3.00;;;12.40;99.90;;;;;;4995514;28;20231;-74
2023/10/25 04:14:48;;;;;;;3.70;2.97;;;12.40;99.90;;;;;;4996461;28;20189;-73
2023/10/25 04:17:14;;;;;;;4.77;3.40;;;12.30;99.90;;;;;;4994549;28;20185;-74
2023/10/25 04:19:40;;;;;;;5.03;2.87;;;12.30;99.90;;;;;;5023561;28;20216;-74
2023/10/25 04:22:06;;;;;;;3.23;2.90;;;12.30;99.90;;;;;;5000431;28;20181;-74
2023/10/25 04:24:33;;;;;;;3.40;2.63;;;12.30;99.90;;;;;;4994962;28;20518;-74
2023/10/25 04:27:01;;;;;;;7.43;3.30;;;12.30;99.90;;;;;;4996826;28;20217;-74
2023/10/25 04:29:26;;;;;;;5.40;3.60;;;12.30;99.90;;;;;;4996132;28;20449;-74
2023/10/25 04:31:52;;;;;;;5.30;4.03;;;12.20;99.90;;;;;;4996315;28;20950;-75
2023/10/25 04:34:17;;;;;;;5.70;4.70;;;12.20;99.90;;;;;;4994118;28;20287;-74
2023/10/25 04:36:43;;;;;;;4.90;3.90;;;12.20;99.90;;;;;;4998598;28;20215;-73
2023/10/25 04:39:09;;;;;;;5.00;3.80;;;12.20;99.90;;;;;;4991162;28;20292;-73
2023/10/25 04:41:35;;;;;;;8.10;4.20;;;12.20;99.90;;;;;;4994612;28;20209;-72
2023/10/25 04:44:01;;;;;;;5.23;4.10;;;12.10;99.90;;;;;;4996904;28;20424;-72
2023/10/25 04:46:27;;;;;;;8.03;4.40;;;12.10;99.90;;;;;;5022358;28;20461;-73
2023/10/25 04:48:52;;;;;;;5.23;4.03;;;12.00;99.90;;;;;;4994786;28;20181;-72
2023/10/25 04:51:18;;;;;;;4.70;4.10;;;12.00;99.90;;;;;;5002981;28;20280;-74
2023/10/25 04:53:46;;;;;;;5.37;4.27;;;12.00;99.90;;;;;;4996512;28;20180;-73
2023/10/25 04:56:11;;;;;;;6.77;4.43;;;12.00;99.90;;;;;;4999864;28;20178;-73
2023/10/25 04:58:37;;;;;;;4.10;3.70;;;12.00;99.90;;;;;;4995645;28;20834;-72
2023/10/25 05:01:13;;;;;;;6.27;4.30;;;12.00;99.90;;;;;;4996413;28;20194;-73
2023/10/25 05:03:43;;;;;;;6.73;4.20;;;11.90;99.90;;;;;;4996104;28;20293;-73
2023/10/25 05:06:09;;;;;;;5.73;4.70;;;11.90;99.90;;;;;;5002306;28;20472;-73
2023/10/25 05:08:35;;;;;;;5.97;4.50;;;11.90;99.90;;;;;;4989482;28;20447;-74
2023/10/25 05:11:05;;;;;;;9.00;4.47;;;11.90;99.90;;;;;;4993199;28;20468;-74
2023/10/25 05:13:31;;;;;;;7.43;4.57;;;11.90;99.90;;;;;;5000011;28;20417;-74
2023/10/25 05:15:57;;;;;;;6.10;4.40;;;11.90;99.90;;;;;;4999025;28;20425;-74
2023/10/25 05:18:23;;;;;;;4.70;4.20;;;11.90;99.90;;;;;;4994392;28;20474;-73
2023/10/25 05:20:58;;;;;;;4.27;3.73;;;11.90;99.90;;;;;;4991652;28;20473;-74
2023/10/25 05:23:34;;;;;;;5.10;4.60;;;11.90;99.90;;;;;;4994512;28;20431;-73
2023/10/25 05:26:04;;;;;;;4.63;4.20;;;11.90;99.90;;;;;;5000047;28;20538;-74
2023/10/25 05:28:31;;;;;;;6.20;4.77;;;11.90;99.90;;;;;;5001292;28;20456;-75
2023/10/25 05:31:03;;;;;;;5.23;4.40;;;11.90;99.90;;;;;;4997153;28;20530;-74
2023/10/25 05:33:32;;;;;;;4.80;3.80;;;11.90;99.90;;;;;;5000624;28;20529;-74
2023/10/25 05:36:00;;;;;;;4.60;4.10;;;11.90;99.90;;;;;;4990458;28;20439;-75
2023/10/25 05:38:26;;;;;;;7.30;3.90;;;11.90;99.90;;;;;;4996264;28;20531;-72
2023/10/25 05:40:53;;;;;;;5.40;4.63;;;11.90;99.90;;;;;;4989738;28;20456;-73
2023/10/25 05:43:28;;;;;;;5.30;4.80;;;11.90;99.90;;;;;;4996503;28;20420;-73
2023/10/25 05:45:54;;;;;;;5.10;4.50;;;12.00;99.90;;;;;;4992509;28;20482;-73
2023/10/25 05:48:20;;;;;;;8.43;4.27;;;12.00;99.90;;;;;;4992233;28;20431;-73
2023/10/25 05:50:50;;;;;;;4.70;4.30;;;12.00;99.90;;;;;;5015055;28;20464;-73
2023/10/25 05:53:16;;;;;;;5.40;4.00;;;11.90;99.90;;;;;;4994914;28;20185;-73
2023/10/25 05:55:41;;;;;;;4.40;3.47;;;12.00;99.90;;;;;;4989216;28;20452;-72
2023/10/25 05:58:08;;;;;;;4.00;3.50;;;12.00;99.90;;;;;;4985601;28;20470;-72
2023/10/25 06:00:34;;;;;;;4.73;3.40;;;12.00;99.90;;;;;;4995560;28;20236;-74
2023/10/25 06:03:02;;;;;;;3.80;3.23;;;12.00;99.90;;;;;;4983358;28;20633;-72
2023/10/25 06:05:33;;;;;;;4.73;4.00;;;12.00;99.90;;;;;;4994233;28;20525;-73
2023/10/25 06:08:00;;;;;;;5.77;3.50;;;12.00;99.90;;;;;;4989067;28;20424;-72
2023/10/25 06:10:26;;;;;;;4.00;3.00;;;12.00;99.90;;;;;;4994042;28;20963;-73
2023/10/25 06:12:51;;;;;;;7.60;3.80;;;12.00;99.90;;;;;;5017575;28;20972;-73
2023/10/25 06:15:17;;;;;;;4.20;3.80;;;12.00;99.90;;;;;;4987535;28;20428;-74
2023/10/25 06:17:43;;;;;;;5.13;3.40;;;12.10;99.90;;;;;;4991449;28;20719;-74
2023/10/25 06:20:10;;;;;;;5.37;2.80;;;12.10;99.90;;;;;;4993571;28;20274;-75
2023/10/25 06:22:35;;;;;;;5.70;3.53;;;12.10;99.90;;;;;;4989545;28;20200;-76
2023/10/25 06:25:03;;;;;;;5.30;3.70;;;12.10;99.90;;;;;;4993586;28;20420;-73
2023/10/25 06:27:29;;;;;;;6.53;3.00;;;12.10;99.90;;;;;;4992665;28;20186;-74
2023/10/25 06:29:55;;;;;;;4.33;2.80;;;12.10;99.90;;;;;;4988092;28;20489;-74
2023/10/25 06:32:21;;;;;;;4.43;2.73;;;12.10;99.90;;;;;;4994194;28;20761;-74
2023/10/25 06:34:46;;;;;;;6.90;3.80;;;12.20;99.90;;;;;;4994006;28;20428;-73
2023/10/25 06:37:12;;;;;;;4.03;3.37;;;12.20;99.90;;;;;;4990367;28;20198;-73
2023/10/25 06:39:38;;;;;;;5.37;3.33;;;12.20;99.90;;;;;;4987646;28;20218;-74
2023/10/25 06:42:04;;;;;;;11.83;4.93;;;12.30;99.90;;;;;;4988382;28;20216;-74
2023/10/25 06:44:30;;;;;;;4.40;3.73;;;12.30;99.90;;;;;;4995110;28;20439;-73
2023/10/25 06:46:55;;;;;;;3.67;3.37;;;12.30;99.90;;;;;;4986932;28;20476;-74
2023/10/25 06:49:21;;;;;;;4.30;3.47;;;12.30;99.90;;;;;;4995700;28;20205;-73
2023/10/25 06:51:47;;;;;;;4.40;2.93;;;12.40;99.90;;;;;;4986712;28;20178;-74
2023/10/25 06:54:13;;;;;;;3.17;2.80;;;12.40;99.90;;;;;;4986732;28;20432;-73
2023/10/25 06:56:39;;;;;;;3.67;2.77;;;12.40;99.90;;;;;;4990681;28;20197;-74
2023/10/25 06:59:05;;;;;;;2.97;2.50;;;12.40;99.90;;;;;;4992093;28;20206;-71
2023/10/25 07:01:34;;;;;;;3.80;2.63;;;12.40;99.90;;;;;;4987247;28;20181;-73
2023/10/25 07:04:02;;;;;;;3.67;2.47;;;12.40;99.90;;;;;;4988440;28;20441;-72
2023/10/25 07:06:28;;;;;;;3.10;2.50;;;12.40;99.90;;;;;;4992502;28;20618;-72
2023/10/25 07:08:53;;;;;;;3.30;2.47;;;12.40;99.90;;;;;;4994708;28;20522;-72
2023/10/25 07:11:19;;;;;;;4.67;2.47;;;12.50;99.90;;;;;;4995647;28;20285;-72
2023/10/25 07:13:45;;;;;;;4.30;2.43;;;12.60;99.90;;;;;;5023459;28;20435;-72
2023/10/25 07:16:11;;;;;;;3.90;3.03;;;12.60;99.90;;;;;;4995809;28;21633;-71
2023/10/25 07:18:36;;;;;;;3.67;3.07;;;12.70;99.90;;;;;;4996357;28;20695;-72
2023/10/25 07:21:02;;;;;;;3.97;2.30;;;12.80;99.90;;;;;;4994089;28;20452;-72
2023/10/25 07:23:28;;;;;;;4.90;2.57;;;12.80;99.90;;;;;;4994269;28;20190;-72
2023/10/25 07:25:53;;;;;;;3.00;2.50;;;12.80;99.90;;;;;;4998484;28;20292;-73
2023/10/25 07:28:21;;;;;;;2.97;2.30;;;12.90;99.90;;;;;;4994152;28;20174;-72
2023/10/25 07:30:47;;;;;;;3.43;2.50;;;12.90;99.90;;;;;;4993454;28;20296;-71
2023/10/25 07:33:13;;;;;;;2.73;2.13;;;13.00;99.90;;;;;;4989370;28;20545;-73
2023/10/25 07:35:38;;;;;;;3.47;2.20;;;13.00;99.90;;;;;;4996803;28;20218;-69
2023/10/25 07:38:04;;;;;;;3.97;2.17;;;13.10;99.90;;;;;;4985422;28;20523;-69
2023/10/25 07:40:29;;;;;;;2.97;2.13;;;13.10;99.90;;;;;;4987950;28;20213;-69
2023/10/25 07:42:55;;;;;;;3.07;2.40;;;13.10;99.90;;;;;;4991967;28;20196;-69
2023/10/25 07:45:20;;;;;;;2.37;2.10;;;13.20;99.90;;;;;;4992669;28;20185;-69
2023/10/25 07:47:46;;;;;;;2.63;1.93;;;13.20;99.90;;;;;;4987420;28;20186;-69
2023/10/25 07:50:17;;;;;;;3.67;2.70;;;13.30;99.90;;;;;;4990411;28;20247;-69
2023/10/25 07:52:44;;;;;;;4.10;2.40;;;13.40;99.90;;;;;;4992417;28;20844;-69
2023/10/25 07:55:11;;;;;;;4.63;2.40;;;13.40;99.90;;;;;;4986407;28;20432;-69
2023/10/25 07:57:36;;;;;;;2.63;1.97;;;13.50;99.90;;;;;;4994553;28;20822;-70
2023/10/25 08:00:03;;;;;;;3.00;2.00;;;13.50;99.90;;;;;;4991468;28;20451;-71
2023/10/25 08:02:28;;;;;;;8.50;2.50;;;13.60;99.90;;;;;;4987331;28;20178;-70
2023/10/25 08:04:54;;;;;;;2.87;2.20;;;13.70;99.90;;;;;;4988930;28;20850;-70
2023/10/25 08:07:20;;;;;;;3.70;2.27;;;13.80;99.90;;;;;;4992898;28;20318;-70
2023/10/25 08:09:47;;;;;;;3.77;2.53;;;13.90;99.90;;;;;;4996873;28;20232;-70
2023/10/25 08:12:12;;;;;;;3.57;2.40;;;14.00;99.90;;;;;;4991297;28;20184;-71
2023/10/25 08:14:38;;;;;;;4.70;2.40;;;14.10;99.90;;;;;;4988980;28;20816;-70
2023/10/25 08:17:04;;;;;;;3.33;1.90;;;14.20;99.90;;;;;;4985256;28;20185;-70
2023/10/25 08:19:30;;;;;;;3.37;2.30;;;14.30;99.90;;;;;;4986322;28;20206;-70
2023/10/25 08:21:56;;;;;;;2.70;1.90;;;14.40;99.90;;;;;;4994362;28;20562;-70
2023/10/25 08:24:23;;;;;;;3.70;2.10;;;14.50;99.90;;;;;;4990296;28;20548;-72
2023/10/25 08:26:49;;;;;;;3.93;3.00;;;14.60;99.90;;;;;;4984889;28;20232;-71
2023/10/25 08:29:14;;;;;;;8.13;3.67;;;14.70;99.90;;;;;;4983114;28;21078;-72
2023/10/25 08:31:42;;;;;;;2.83;2.50;;;14.80;99.90;;;;;;4982552;28;20216;-71
2023/10/25 08:34:08;;;;;;;4.73;2.67;;;14.90;99.90;;;;;;4988069;28;20217;-70
2023/10/25 08:36:36;;;;;;;2.90;2.20;;;15.00;99.90;;;;;;4990144;28;21039;-70
2023/10/25 08:39:02;;;;;;;3.40;2.30;;;15.10;99.90;;;;;;4989074;28;20456;-71
2023/10/25 08:41:28;;;;;;;2.80;2.20;;;15.10;99.90;;;;;;4995115;28;20432;-70
2023/10/25 08:43:54;;;;;;;3.30;2.00;;;15.10;99.90;;;;;;4990053;28;20421;-70
2023/10/25 08:46:20;;;;;;;3.20;2.03;;;15.10;99.90;;;;;;4984916;28;20551;-70
2023/10/25 08:48:47;;;;;;;2.50;1.90;;;15.20;99.90;;;;;;4984760;28;20443;-70
2023/10/25 08:51:14;;;;;;;3.27;1.90;;;15.20;99.90;;;;;;4984483;28;20432;-70
2023/10/25 08:53:41;;;;;;;3.60;2.00;;;15.20;99.90;;;;;;4986650;28;20455;-70
2023/10/25 08:56:08;;;;;;;4.27;2.57;;;15.30;99.90;;;;;;4982994;28;20474;-70
2023/10/25 08:58:34;;;;;;;2.93;2.10;;;15.30;99.90;;;;;;4993287;28;20424;-70
2023/10/25 09:00:59;;;;;;;2.77;2.00;;;15.30;99.90;;;;;;4984946;28;20460;-70
2023/10/25 09:03:34;;;;;;;3.17;1.90;;;15.30;99.90;;;;;;4985386;28;20207;-70
2023/10/25 09:06:02;;;;;;;2.40;1.70;;;15.30;99.90;;;;;;4987328;28;20634;-70
2023/10/25 09:08:28;;;;;;;2.57;1.97;;;15.30;99.90;;;;;;4993945;28;20443;-70
2023/10/25 09:10:58;;;;;;;2.33;1.80;;;15.30;99.90;;;;;;4989889;28;20449;-71
2023/10/25 09:13:24;;;;;;;8.37;2.40;;;15.30;99.90;;;;;;4996207;28;20647;-72
2023/10/25 09:15:50;;;;;;;2.97;1.90;;;15.40;99.90;;;;;;4991308;28;20520;-71
2023/10/25 09:18:16;;;;;;;3.50;2.90;;;15.50;99.90;;;;;;4992339;28;20445;-71
2023/10/25 09:20:48;;;;;;;2.50;1.70;;;15.70;99.90;;;;;;4990399;28;21023;-71
2023/10/25 09:23:15;;;;;;;5.67;2.10;;;15.80;99.90;;;;;;4986531;28;20243;-71
2023/10/25 09:25:41;;;;;;;3.87;2.40;;;15.90;99.90;;;;;;4994406;28;20533;-71
2023/10/25 09:28:15;;;;;;;6.13;2.20;;;15.90;99.90;;;;;;4989980;28;21063;-71
2023/10/25 09:30:42;;;;;;;3.47;2.20;;;16.00;99.90;;;;;;4981451;28;20209;-71
2023/10/25 09:33:08;;;;;;;3.83;2.50;;;16.00;99.90;;;;;;4984510;28;20440;-71
2023/10/25 09:35:33;;;;;;;6.23;3.07;;;16.10;99.90;;;;;;4989075;28;20452;-71
2023/10/25 09:37:59;;;;;;;3.80;2.53;;;16.20;99.90;;;;;;4986809;28;20193;-71
2023/10/25 09:40:25;;;;;;;3.20;2.30;;;16.20;99.90;;;;;;4988026;28;20675;-71
2023/10/25 09:42:59;;;;;;;3.83;2.43;;;16.30;99.90;;;;;;4985218;28;20676;-71
2023/10/25 09:45:31;;;;;;;5.37;2.80;;;16.30;99.90;;;;;;4986025;28;21096;-72
2023/10/25 09:48:03;;;;;;;5.40;3.13;;;16.30;99.90;;;;;;4985857;28;20439;-71
2023/10/25 09:50:41;;;;;;;3.63;2.60;;;16.20;99.90;;;;;;4989419;28;20432;-72
2023/10/25 09:53:13;;;;;;;3.67;2.77;;;16.20;99.90;;;;;;4988065;28;20531;-71
2023/10/25 09:55:45;;;;;;;3.40;2.47;;;16.00;99.90;;;;;;4984433;28;21271;-71
2023/10/25 09:58:12;;;;;;;3.20;2.63;;;16.00;99.90;;;;;;4989532;28;20943;-71
2023/10/25 10:00:38;;;;;;;4.90;3.40;;;15.90;99.90;;;;;;4982458;28;20498;-71
2023/10/25 10:03:16;;;;;;;5.70;3.10;;;15.80;99.90;;;;;;4990361;28;20442;-71
2023/10/25 10:05:56;;;;;;;5.20;2.67;;;15.80;99.90;;;;;;4987237;28;20220;-72
2023/10/25 10:08:35;;;;;;;4.23;3.30;;;15.70;99.90;;;;;;4985060;28;20530;-71
2023/10/25 10:11:09;;;;;;;3.30;3.00;;;15.80;99.90;;;;;;4989587;28;20867;-71
2023/10/25 10:13:34;;;;;;;5.33;3.23;;;15.80;99.90;;;;;;4991163;28;20432;-71
2023/10/25 10:16:01;;;;;;;4.93;3.70;;;15.80;99.90;;;;;;4985189;28;20974;-70
2023/10/25 10:18:28;;;;;;;3.73;3.13;;;15.90;99.90;;;;;;4987582;28;20268;-71
2023/10/25 10:21:05;;;;;;;7.07;4.00;;;16.00;99.90;;;;;;4988568;28;20460;-71
2023/10/25 10:23:51;;;;;;;4.17;3.73;;;16.00;99.90;;;;;;4989514;28;20478;-71
2023/10/25 10:26:44;;;;;;;5.30;3.07;;;16.00;99.90;;;;;;4988137;28;20472;-70
2023/10/25 10:29:32;;;;;;;5.10;3.33;;;16.00;99.90;;;;;;4988548;28;21251;-70
2023/10/25 10:32:02;;;;;;;4.87;3.40;;;16.00;99.90;;;;;;4990075;28;20516;-70
2023/10/25 10:34:50;;;;;;;3.83;3.17;;;16.00;99.90;;;;;;4986114;28;20864;-70
2023/10/25 10:37:21;;;;;;;4.60;3.40;;;16.10;99.90;;;;;;4986453;28;21075;-70
2023/10/25 10:39:56;;;;;;;4.20;3.53;;;16.20;99.90;;;;;;4986930;28;21177;-70
2023/10/25 10:42:31;;;;;;;4.10;3.27;;;16.30;99.90;;;;;;4995262;28;20447;-70
2023/10/25 10:44:58;;;;;;;5.40;3.03;;;16.30;99.90;;;;;;4984464;28;20427;-70
2023/10/25 10:47:41;;;;;;;5.73;3.47;;;16.30;99.90;;;;;;4982440;28;20511;-70
2023/10/25 10:50:14;;;;;;;6.13;4.10;;;16.30;99.90;;;;;;4989476;28;20530;-70
2023/10/25 10:52:42;;;;;;;4.37;3.97;;;16.20;99.90;;;;;;4983916;28;20467;-70
2023/10/25 10:55:09;;;;;;;4.23;3.83;;;16.30;99.90;;;;;;4984855;28;20429;-70
2023/10/25 10:57:38;;;;;;;5.90;4.83;;;16.40;99.90;;;;;;4973129;28;20428;-70
2023/10/25 11:00:08;;;;;;;4.67;3.10;;;16.60;99.90;;;;;;4985195;28;20455;-70
2023/10/25 11:02:37;;;;;;;4.70;3.87;;;16.60;99.90;;;;;;4993986;28;20982;-70
2023/10/25 11:05:04;;;;;;;5.67;4.40;;;16.60;99.90;;;;;;4991725;28;20960;-73
2023/10/25 11:07:30;;;;;;;6.80;4.70;;;16.60;99.90;;;;;;4990509;28;20510;-70
2023/10/25 11:09:56;;;;;;;6.83;4.13;;;16.50;99.90;;;;;;4990624;28;20905;-70
2023/10/25 11:12:23;;;;;;;6.83;4.30;;;16.50;99.90;;;;;;4990843;28;20212;-71
2023/10/25 11:14:48;;;;;;;6.67;4.37;;;16.50;99.90;;;;;;4984803;28;20425;-71
2023/10/25 11:17:14;;;;;;;5.60;4.73;;;16.50;99.90;;;;;;4984960;28;20437;-70
2023/10/25 11:19:45;;;;;;;3.77;3.40;;;16.60;99.90;;;;;;4994531;28;20696;-71
2023/10/25 11:22:11;;;;;;;4.57;4.17;;;16.70;99.90;;;;;;4982421;28;20530;-71
2023/10/25 11:24:37;;;;;;;5.70;4.17;;;16.70;99.90;;;;;;4975671;28;21388;-69
2023/10/25 11:27:03;;;;;;;4.37;3.87;;;16.80;99.90;;;;;;4978607;28;20472;-70
2023/10/25 11:29:33;;;;;;;3.93;3.53;;;16.70;99.90;;;;;;4988483;28;20256;-70
2023/10/25 11:32:03;;;;;;;4.90;4.03;;;16.70;99.90;;;;;;4992681;28;20444;-70
2023/10/25 11:34:33;;;;;;;4.60;3.70;;;16.70;99.90;;;;;;4987558;28;20464;-71
2023/10/25 11:37:01;;;;;;;4.77;3.60;;;16.80;99.90;;;;;;4980751;28;20517;-71
2023/10/25 11:39:30;;;;;;;5.43;4.90;;;16.80;99.90;;;;;;4980440;28;20464;-71
2023/10/25 11:41:58;;;;;;;6.33;5.00;;;16.90;99.90;;;;;;4974729;28;20433;-71
2023/10/25 11:44:24;;;;;;;5.43;3.47;;;17.00;99.90;;;;;;4971183;28;20447;-72
2023/10/25 11:46:55;;;;;;;3.83;3.40;;;17.10;99.90;;;;;;4978110;28;20468;-72
2023/10/25 11:49:21;;;;;;;4.67;4.10;;;17.10;99.90;;;;;;4990929;28;20205;-72
2023/10/25 11:51:47;;;;;;;5.20;3.57;;;17.10;99.90;;;;;;4992212;28;20552;-73
2023/10/25 11:54:13;;;;;;;4.17;3.30;;;17.10;99.90;;;;;;4994573;28;20504;-73
2023/10/25 11:56:39;;;;;;;3.87;3.47;;;17.10;99.90;;;;;;4994125;28;20599;-72
2023/10/25 11:59:05;;;;;;;5.47;3.93;;;17.00;99.90;;;;;;4999388;28;20232;-73
2023/10/25 12:01:31;;;;;;;6.73;3.83;;;17.00;99.90;;;;;;4996688;28;20432;-73
2023/10/25 12:03:56;;;;;;;4.50;3.20;;;17.00;99.90;;;;;;4995780;28;20691;-74
2023/10/25 12:06:23;;;;;;;5.70;3.20;;;16.90;99.90;;;;;;4986055;28;20713;-73
2023/10/25 12:08:49;;;;;;;4.10;3.53;;;16.90;99.90;;;;;;4987396;28;20185;-72
2023/10/25 12:11:14;;;;;;;3.97;2.70;;;16.90;99.90;;;;;;4982765;28;20428;-71
2023/10/25 12:13:41;;;;;;;3.10;2.23;;;16.90;99.90;;;;;;4990927;28;20235;-72
2023/10/25 12:16:08;;;;;;;4.50;2.40;;;16.80;99.90;;;;;;4990876;28;20185;-72
2023/10/25 12:18:36;;;;;;;3.20;2.27;;;16.80;99.90;;;;;;4988173;28;20455;-72
2023/10/25 12:21:03;;;;;;;6.00;2.23;;;16.70;99.90;;;;;;4989500;28;20452;-71
2023/10/25 12:23:29;;;;;;;3.67;2.13;;;16.70;99.90;;;;;;4992670;28;20455;-71
2023/10/25 12:25:55;;;;;;;2.70;2.30;;;16.60;99.90;;;;;;4989265;28;21369;-70
2023/10/25 12:28:20;;;;;;;3.00;2.23;;;16.40;99.90;;;;;;4986253;28;20440;-70
2023/10/25 12:30:46;;;;;;;3.13;2.43;;;16.20;99.90;;;;;;4989204;28;20758;-70
2023/10/25 12:33:11;;;;;;;3.70;2.63;;;16.10;99.90;;;;;;4993414;28;20193;-71
2023/10/25 12:35:37;;;;;;;3.37;2.50;;;16.10;99.90;;;;;;4990273;28;20201;-71
2023/10/25 12:38:03;;;;;;;3.00;2.37;;;16.00;99.90;;;;;;4991649;28;20189;-71
2023/10/25 12:40:29;;;;;;;4.10;2.90;;;15.90;99.90;;;;;;4995682;28;20201;-71
2023/10/25 12:42:55;;;;;;;4.90;3.03;;;15.70;99.90;;;;;;4983688;28;20186;-71
2023/10/25 12:45:20;;;;;;;4.10;3.10;;;15.70;99.90;;;;;;4987373;28;20893;-71